createdAt,value
2022-09-27T00:02:00.550Z,11.60
2022-09-27T00:07:23.418Z,11.56
2022-09-27T00:12:16.332Z,11.51
2022-09-27T00:17:16.258Z,11.47
2022-09-27T00:22:16.193Z,11.45
2022-09-27T00:27:16.954Z,11.43
2022-09-27T00:32:16.064Z,11.40
2022-09-27T00:37:15.981Z,11.38
2022-09-27T00:42:15.911Z,11.36
2022-09-27T00:47:15.843Z,11.35
2022-09-27T00:52:15.816Z,11.34
2022-09-27T00:57:15.736Z,11.31
2022-09-27T01:02:15.739Z,11.27
2022-09-27T01:07:15.598Z,11.20
2022-09-27T01:12:15.508Z,11.11
2022-09-27T01:17:15.998Z,11.03
2022-09-27T01:22:15.377Z,10.95
2022-09-27T01:27:15.329Z,10.87
2022-09-27T01:32:17.117Z,10.79
2022-09-27T01:37:16.357Z,10.71
2022-09-27T01:42:19.844Z,10.64
2022-09-27T01:47:16.038Z,10.56
2022-09-27T01:52:14.982Z,10.49
2022-09-27T01:57:14.934Z,10.43
2022-09-27T02:02:14.892Z,10.37
2022-09-27T02:07:14.757Z,10.30
2022-09-27T02:12:14.707Z,10.25
2022-09-27T02:17:14.638Z,10.20
2022-09-27T02:22:14.555Z,10.16
2022-09-27T02:27:14.503Z,10.13
2022-09-27T02:32:14.977Z,10.11
2022-09-27T02:37:14.385Z,10.10
2022-09-27T02:42:14.302Z,10.09
2022-09-27T02:47:14.272Z,10.07
2022-09-27T02:52:14.170Z,10.06
2022-09-27T02:57:14.101Z,10.06
2022-09-27T03:02:14.278Z,10.07
2022-09-27T03:07:13.983Z,10.09
2022-09-27T03:12:13.894Z,10.11
2022-09-27T03:17:13.919Z,10.12
2022-09-27T03:22:13.797Z,10.13
2022-09-27T03:27:13.761Z,10.13
2022-09-27T03:32:13.649Z,10.12
2022-09-27T03:37:13.646Z,10.11
2022-09-27T03:42:13.478Z,10.09
2022-09-27T03:47:13.425Z,10.07
2022-09-27T03:52:13.369Z,10.07
2022-09-27T03:57:13.301Z,10.06
2022-09-27T04:02:13.230Z,10.05
2022-09-27T04:07:13.163Z,10.04
2022-09-27T04:12:13.206Z,10.02
2022-09-27T04:17:21.122Z,10.00
2022-09-27T04:22:14.034Z,9.96
2022-09-27T04:27:13.937Z,9.93
2022-09-27T04:32:14.605Z,9.92
2022-09-27T04:37:13.864Z,9.93
2022-09-27T04:42:13.771Z,9.95
2022-09-27T04:47:13.681Z,9.96
2022-09-27T04:52:13.645Z,9.96
2022-09-27T04:57:13.548Z,9.96
2022-09-27T05:02:13.536Z,9.93
2022-09-27T05:07:13.430Z,9.91
2022-09-27T05:12:13.413Z,9.89
2022-09-27T05:17:13.424Z,9.89
2022-09-27T05:22:13.294Z,9.90
2022-09-27T05:27:13.171Z,9.91
2022-09-27T05:32:13.119Z,9.92
2022-09-27T05:37:13.049Z,9.95
2022-09-27T05:42:12.965Z,9.97
2022-09-27T05:47:13.012Z,9.99
2022-09-27T05:52:16.037Z,10.02
2022-09-27T05:57:12.736Z,10.07
2022-09-27T06:02:12.876Z,10.11
2022-09-27T06:07:12.639Z,10.16
2022-09-27T06:12:12.559Z,10.23
2022-09-27T06:17:12.514Z,10.31
2022-09-27T06:22:12.454Z,10.44
2022-09-27T06:27:12.378Z,10.59
2022-09-27T06:32:12.276Z,10.72
2022-09-27T06:37:12.205Z,10.88
2022-09-27T06:42:12.139Z,11.18
2022-09-27T06:47:12.121Z,11.61
2022-09-27T06:52:12.006Z,12.06
2022-09-27T06:57:11.944Z,12.60
2022-09-27T07:02:11.935Z,13.91
2022-09-27T07:07:11.846Z,15.49
2022-09-27T07:12:11.792Z,16.43
2022-09-27T07:17:11.652Z,16.84
2022-09-27T07:22:11.621Z,16.95
2022-09-27T07:27:11.548Z,17.34
2022-09-27T07:32:11.475Z,17.76
2022-09-27T07:37:11.398Z,17.83
2022-09-27T07:42:11.500Z,17.56
2022-09-27T07:47:11.277Z,17.09
2022-09-27T07:52:11.211Z,16.67
2022-09-27T07:57:11.255Z,16.32
2022-09-27T08:02:11.192Z,16.21
2022-09-27T08:07:14.202Z,16.40
2022-09-27T08:12:10.937Z,16.62
2022-09-27T08:17:10.897Z,16.47
2022-09-27T08:22:10.799Z,16.08
2022-09-27T08:27:11.997Z,15.80
2022-09-27T08:32:10.649Z,15.65
2022-09-27T08:37:10.606Z,15.67
2022-09-27T08:42:10.543Z,15.84
2022-09-27T08:47:10.485Z,15.96
2022-09-27T08:52:10.393Z,15.90
2022-09-27T08:57:10.341Z,15.71
2022-09-27T09:02:10.326Z,15.43
2022-09-27T09:07:10.179Z,15.06
2022-09-27T09:12:10.101Z,14.62
2022-09-27T09:17:10.059Z,14.20
2022-09-27T09:22:10.005Z,13.85
2022-09-27T09:27:09.982Z,13.66
2022-09-27T09:32:09.895Z,13.68
2022-09-27T09:37:09.773Z,13.87
2022-09-27T09:42:09.702Z,14.22
2022-09-27T09:47:09.670Z,15.05
2022-09-27T09:52:09.766Z,15.97
2022-09-27T09:57:09.518Z,16.29
2022-09-27T10:02:09.532Z,16.07
2022-09-27T10:07:09.369Z,15.68
2022-09-27T10:12:09.334Z,15.30
2022-09-27T10:17:09.239Z,14.96
2022-09-27T10:22:09.189Z,14.70
2022-09-27T10:27:09.101Z,14.87
2022-09-27T10:32:09.084Z,15.81
2022-09-27T10:37:09.004Z,17.18
2022-09-27T10:42:08.919Z,18.63
2022-09-27T10:47:08.828Z,19.47
2022-09-27T10:52:08.793Z,19.59
2022-09-27T10:57:08.708Z,19.33
2022-09-27T11:02:08.646Z,18.95
2022-09-27T11:07:08.571Z,18.74
2022-09-27T11:12:08.507Z,20.31
2022-09-27T11:17:08.442Z,22.55
2022-09-27T11:22:08.355Z,23.53
2022-09-27T11:27:08.283Z,23.74
2022-09-27T11:32:08.204Z,23.95
2022-09-27T11:37:08.154Z,23.41
2022-09-27T11:42:08.121Z,22.14
2022-09-27T11:47:08.137Z,20.80
2022-09-27T11:52:08.027Z,19.68
2022-09-27T11:57:07.892Z,18.82
2022-09-27T12:02:07.909Z,18.20
2022-09-27T12:07:07.762Z,17.76
2022-09-27T12:12:07.669Z,17.36
2022-09-27T12:17:07.614Z,16.86
2022-09-27T12:22:07.557Z,16.31
2022-09-27T12:27:07.470Z,15.83
2022-09-27T12:32:07.518Z,15.53
2022-09-27T12:37:07.342Z,15.39
2022-09-27T12:42:07.295Z,15.23
2022-09-27T12:47:07.214Z,15.00
2022-09-27T12:52:07.144Z,14.79
2022-09-27T12:57:07.101Z,14.71
2022-09-27T13:02:07.043Z,14.74
2022-09-27T13:07:06.964Z,14.81
2022-09-27T13:12:06.884Z,14.89
2022-09-27T13:17:06.815Z,15.00
2022-09-27T13:22:06.708Z,15.18
2022-09-27T13:27:06.657Z,15.37
2022-09-27T13:32:06.628Z,15.55
2022-09-27T13:37:06.504Z,15.80
2022-09-27T13:42:06.471Z,16.10
2022-09-27T13:47:06.381Z,16.24
2022-09-27T13:52:06.363Z,16.18
2022-09-27T13:57:06.324Z,16.03
2022-09-27T14:02:06.273Z,15.88
2022-09-27T14:07:06.136Z,15.69
2022-09-27T14:12:06.055Z,15.42
2022-09-27T14:17:09.185Z,15.12
2022-09-27T14:22:05.948Z,14.88
2022-09-27T14:27:05.843Z,14.69
2022-09-27T14:32:05.785Z,14.54
2022-09-27T14:37:05.710Z,14.48
2022-09-27T14:42:05.630Z,14.58
2022-09-27T14:47:05.570Z,14.79
2022-09-27T14:52:05.504Z,14.93
2022-09-27T14:57:05.446Z,14.86
2022-09-27T15:02:05.379Z,14.59
2022-09-27T15:07:05.367Z,14.25
2022-09-27T15:12:05.293Z,13.91
2022-09-27T15:17:05.184Z,13.58
2022-09-27T15:22:05.365Z,13.27
2022-09-27T15:27:05.060Z,13.02
2022-09-27T15:32:05.005Z,12.82
2022-09-27T15:37:04.903Z,12.67
2022-09-27T15:42:04.863Z,12.59
2022-09-27T15:47:04.772Z,12.58
2022-09-27T15:52:04.785Z,12.58
2022-09-27T16:00:25.097Z,13.64
2022-09-27T16:05:24.924Z,13.12
2022-09-27T16:10:24.897Z,12.84
2022-09-27T16:15:24.840Z,12.70
2022-09-27T16:20:24.756Z,12.60
2022-09-27T16:25:24.712Z,12.50
2022-09-27T16:30:24.625Z,12.39
2022-09-27T16:35:24.608Z,12.28
2022-09-27T16:40:24.522Z,12.19
2022-09-27T16:45:24.477Z,12.08
2022-09-27T16:50:24.360Z,11.92
2022-09-27T16:55:24.260Z,11.72
2022-09-27T17:00:24.324Z,11.51
2022-09-27T17:05:24.158Z,11.32
2022-09-27T17:10:51.184Z,11.14
2022-09-27T17:15:44.102Z,10.95
2022-09-27T17:20:44.020Z,10.78
2022-09-27T17:25:43.984Z,10.66
2022-09-27T17:30:43.923Z,10.58
2022-09-27T17:35:43.833Z,10.51
2022-09-27T17:40:43.836Z,10.46
2022-09-27T17:45:43.702Z,10.41
2022-09-27T17:50:43.592Z,10.35
2022-09-27T17:55:43.555Z,10.30
2022-09-27T18:00:43.618Z,10.25
2022-09-27T18:05:43.409Z,10.20
2022-09-27T18:10:43.353Z,10.17
2022-09-27T18:15:43.340Z,10.16
2022-09-27T18:20:43.251Z,10.14
2022-09-27T18:25:43.165Z,10.14
2022-09-27T18:30:43.099Z,10.15
2022-09-27T18:35:43.040Z,10.15
2022-09-27T18:40:56.017Z,10.14
2022-09-27T18:45:43.943Z,10.12
2022-09-27T18:50:42.874Z,10.10
2022-09-27T18:55:42.749Z,10.07
2022-09-27T19:00:42.782Z,10.04
2022-09-27T19:05:42.639Z,10.03
2022-09-27T19:10:42.564Z,10.01
2022-09-27T19:15:42.544Z,10.00
2022-09-27T19:20:42.457Z,9.98
2022-09-27T19:25:42.398Z,9.97
2022-09-27T19:30:42.311Z,9.97
2022-09-27T19:35:42.592Z,9.98
2022-09-27T19:40:42.235Z,9.99
2022-09-27T19:45:42.136Z,9.99
2022-09-27T19:50:42.046Z,9.98
2022-09-27T19:55:41.993Z,9.95
2022-09-27T20:00:41.949Z,9.92
2022-09-27T20:05:41.838Z,9.88
2022-09-27T20:10:41.771Z,9.84
2022-09-27T20:15:41.793Z,9.82
2022-09-27T20:20:41.649Z,9.80
2022-09-27T20:25:43.147Z,9.80
2022-09-27T20:30:41.547Z,9.81
2022-09-27T20:35:41.565Z,9.83
2022-09-27T20:40:41.485Z,9.85
2022-09-27T20:45:41.375Z,9.87
2022-09-27T20:50:41.302Z,9.88
2022-09-27T20:55:41.238Z,9.88
2022-09-27T21:00:41.147Z,9.89
2022-09-27T21:05:41.085Z,9.90
2022-09-27T21:10:41.011Z,9.89
2022-09-27T21:15:40.936Z,9.87
2022-09-27T21:20:40.850Z,9.84
2022-09-27T21:25:40.801Z,9.80
2022-09-27T21:30:40.733Z,9.76
2022-09-27T21:35:40.679Z,9.73
2022-09-27T21:40:40.670Z,9.72
2022-09-27T21:45:40.532Z,9.72
2022-09-27T21:50:40.494Z,9.73
2022-09-27T21:55:40.405Z,9.76
2022-09-27T22:00:40.371Z,9.78
2022-09-27T22:05:40.256Z,9.81
2022-09-27T22:10:40.192Z,9.84
2022-09-27T22:15:40.119Z,9.87
2022-09-27T22:20:40.116Z,9.90
2022-09-27T22:25:40.003Z,9.93
2022-09-27T22:30:39.958Z,9.96
2022-09-27T22:35:39.891Z,10.00
2022-09-27T22:40:39.872Z,10.03
2022-09-27T22:45:39.764Z,10.05
2022-09-27T22:50:39.683Z,10.07
2022-09-27T22:55:39.639Z,10.10
2022-09-27T23:00:39.583Z,10.13
2022-09-27T23:05:39.489Z,10.17
2022-09-27T23:10:39.433Z,10.19
2022-09-27T23:15:39.364Z,10.20
2022-09-27T23:20:39.278Z,10.20
2022-09-27T23:25:39.267Z,10.19
2022-09-27T23:30:39.188Z,10.17
2022-09-27T23:35:39.101Z,10.15
2022-09-27T23:40:39.041Z,10.13
2022-09-27T23:45:39.021Z,10.13
2022-09-27T23:50:38.942Z,10.14
2022-09-27T23:55:38.809Z,10.15
